SJV704 WADL-WADD
Flight info
| Callsign | SJV704 |
|---|---|
| Flight time | 0h 37m |
| Altitude | 10000 |
| Route | CODOT |
| Aircraft | A320/M-VGDW/C |
Departure
| Time | 2026-04-25 12:26 |
|---|---|
| Airport | Lombok International Airport (WADL) |
Arrival
| Time | 2026-04-25 13:03 |
|---|---|
| Airport | Denpasar I Gusti Ngurah Rai International Airport (WADD) |
| Time | Latitude | Longitude | Altitude | Speed | Heading |
|---|---|---|---|---|---|
| 2026-04-25 11:59 | -8.75967 | 116.27241 | 334 ft | 0 kts | 219° |
| 2026-04-25 12:15 | -8.75965 | 116.27242 | 330 ft | 2 kts | 219° |
| 2026-04-25 12:15 | -8.75953 | 116.27254 | 330 ft | 3 kts | 236° |
| 2026-04-25 12:16 | -8.75942 | 116.27271 | 329 ft | 3 kts | 236° |
| 2026-04-25 12:16 | -8.75931 | 116.27287 | 331 ft | 3 kts | 234° |
| 2026-04-25 12:16 | -8.75920 | 116.27304 | 330 ft | 3 kts | 247° |
| 2026-04-25 12:16 | -8.75915 | 116.27323 | 330 ft | 3 kts | 276° |
| 2026-04-25 12:17 | -8.75918 | 116.27337 | 331 ft | 2 kts | 307° |
| 2026-04-25 12:17 | -8.75919 | 116.27338 | 330 ft | 1 kts | 307° |
| 2026-04-25 12:20 | -8.75912 | 116.27329 | 332 ft | 3 kts | 307° |
| 2026-04-25 12:20 | -8.75885 | 116.27310 | 332 ft | 6 kts | 350° |
| 2026-04-25 12:21 | -8.75841 | 116.27330 | 334 ft | 9 kts | 38° |
| 2026-04-25 12:21 | -8.75789 | 116.27334 | 332 ft | 8 kts | 323° |
| 2026-04-25 12:21 | -8.75747 | 116.27281 | 332 ft | 11 kts | 308° |
| 2026-04-25 12:21 | -8.75692 | 116.27211 | 330 ft | 14 kts | 308° |
| 2026-04-25 12:22 | -8.75622 | 116.27125 | 333 ft | 17 kts | 309° |
| 2026-04-25 12:22 | -8.75537 | 116.27019 | 330 ft | 21 kts | 309° |
| 2026-04-25 12:22 | -8.75439 | 116.26896 | 333 ft | 24 kts | 309° |
| 2026-04-25 12:22 | -8.75357 | 116.26795 | 329 ft | 16 kts | 309° |
| 2026-04-25 12:23 | -8.75283 | 116.26701 | 331 ft | 19 kts | 312° |
| 2026-04-25 12:23 | -8.75200 | 116.26600 | 330 ft | 16 kts | 310° |
| 2026-04-25 12:23 | -8.75141 | 116.26526 | 330 ft | 12 kts | 309° |
| 2026-04-25 12:23 | -8.75079 | 116.26470 | 329 ft | 10 kts | 348° |
| 2026-04-25 12:24 | -8.75012 | 116.26511 | 326 ft | 14 kts | 39° |
| 2026-04-25 12:24 | -8.74955 | 116.26563 | 324 ft | 6 kts | 63° |
| 2026-04-25 12:24 | -8.74961 | 116.26584 | 324 ft | 2 kts | 133° |
| 2026-04-25 12:24 | -8.74966 | 116.26590 | 324 ft | 0 kts | 133° |
| 2026-04-25 12:25 | -8.74967 | 116.26591 | 324 ft | 1 kts | 133° |
| 2026-04-25 12:25 | -8.75020 | 116.26648 | 324 ft | 37 kts | 132° |
| 2026-04-25 12:25 | -8.75370 | 116.27079 | 332 ft | 124 kts | 128° |
| 2026-04-25 12:25 | -8.76060 | 116.27925 | 672 ft | 173 kts | 130° |
| 2026-04-25 12:26 | -8.76851 | 116.28892 | 1650 ft | 172 kts | 128° |
| 2026-04-25 12:26 | -8.77612 | 116.29819 | 2316 ft | 178 kts | 129° |
| 2026-04-25 12:26 | -8.78447 | 116.30829 | 2812 ft | 194 kts | 128° |
| 2026-04-25 12:26 | -8.79338 | 116.31950 | 3261 ft | 212 kts | 128° |
| 2026-04-25 12:27 | -8.80269 | 116.33128 | 3800 ft | 229 kts | 127° |
| 2026-04-25 12:27 | -8.81301 | 116.34431 | 4407 ft | 247 kts | 128° |
| 2026-04-25 12:27 | -8.82419 | 116.35839 | 5056 ft | 264 kts | 128° |
| 2026-04-25 12:27 | -8.83591 | 116.37308 | 5731 ft | 272 kts | 128° |
| 2026-04-25 12:28 | -8.84777 | 116.38789 | 5952 ft | 273 kts | 128° |
| 2026-04-25 12:28 | -8.86201 | 116.40091 | 6006 ft | 274 kts | 153° |
| 2026-04-25 12:28 | -8.88063 | 116.40422 | 6007 ft | 278 kts | 187° |
| 2026-04-25 12:28 | -8.89724 | 116.39761 | 6010 ft | 282 kts | 212° |
| 2026-04-25 12:29 | -8.91231 | 116.38476 | 6011 ft | 284 kts | 224° |
| 2026-04-25 12:29 | -8.92361 | 116.37237 | 6007 ft | 285 kts | 227° |
| 2026-04-25 12:29 | -8.93236 | 116.36216 | 5999 ft | 285 kts | 228° |
| 2026-04-25 12:29 | -8.94968 | 116.34221 | 6003 ft | 285 kts | 226° |
| 2026-04-25 12:30 | -8.96287 | 116.32788 | 6002 ft | 284 kts | 225° |
| 2026-04-25 12:30 | -8.97198 | 116.31836 | 5995 ft | 284 kts | 224° |
| 2026-04-25 12:30 | -8.98560 | 116.30356 | 5997 ft | 285 kts | 232° |
| 2026-04-25 12:30 | -8.99465 | 116.28576 | 6007 ft | 288 kts | 252° |
| 2026-04-25 12:31 | -8.99723 | 116.26569 | 6303 ft | 289 kts | 273° |
| 2026-04-25 12:31 | -8.99473 | 116.24596 | 7083 ft | 294 kts | 278° |
| 2026-04-25 12:31 | -8.99189 | 116.22504 | 7986 ft | 297 kts | 277° |
| 2026-04-25 12:31 | -8.98913 | 116.20414 | 8845 ft | 302 kts | 277° |
| 2026-04-25 12:32 | -8.98640 | 116.18318 | 9612 ft | 307 kts | 277° |
| 2026-04-25 12:32 | -8.98371 | 116.16147 | 9899 ft | 308 kts | 276° |
| 2026-04-25 12:32 | -8.98127 | 116.13987 | 9983 ft | 309 kts | 276° |
| 2026-04-25 12:32 | -8.97892 | 116.11833 | 10001 ft | 309 kts | 276° |
| 2026-04-25 12:33 | -8.97653 | 116.09667 | 10004 ft | 308 kts | 276° |
| 2026-04-25 12:33 | -8.97413 | 116.07509 | 10004 ft | 309 kts | 276° |
| 2026-04-25 12:33 | -8.97172 | 116.05358 | 10003 ft | 309 kts | 276° |
| 2026-04-25 12:33 | -8.96927 | 116.03195 | 10005 ft | 308 kts | 276° |
| 2026-04-25 12:34 | -8.96679 | 116.01036 | 10003 ft | 309 kts | 276° |
| 2026-04-25 12:34 | -8.96427 | 115.98852 | 10003 ft | 309 kts | 276° |
| 2026-04-25 12:34 | -8.96177 | 115.96695 | 10004 ft | 308 kts | 276° |
| 2026-04-25 12:34 | -8.96013 | 115.95271 | 10005 ft | 308 kts | 276° |
| 2026-04-25 12:35 | -8.95685 | 115.92420 | 10002 ft | 309 kts | 276° |
| 2026-04-25 12:35 | -8.95437 | 115.90259 | 10005 ft | 308 kts | 276° |
| 2026-04-25 12:35 | -8.95186 | 115.88070 | 10002 ft | 309 kts | 276° |
| 2026-04-25 12:35 | -8.94947 | 115.85943 | 10001 ft | 308 kts | 274° |
| 2026-04-25 12:36 | -8.95068 | 115.83754 | 10006 ft | 307 kts | 256° |
| 2026-04-25 12:36 | -8.95804 | 115.81744 | 10002 ft | 305 kts | 239° |
| 2026-04-25 12:36 | -8.97065 | 115.80052 | 10001 ft | 302 kts | 222° |
| 2026-04-25 12:36 | -8.98273 | 115.78962 | 10003 ft | 302 kts | 219° |
| 2026-04-25 12:37 | -8.98983 | 115.78332 | 10003 ft | 302 kts | 219° |
| 2026-04-25 12:37 | -9.00555 | 115.76929 | 10001 ft | 302 kts | 219° |
| 2026-04-25 12:37 | -9.02119 | 115.75527 | 10003 ft | 302 kts | 219° |
| 2026-04-25 12:37 | -9.03715 | 115.74091 | 10001 ft | 302 kts | 219° |
| 2026-04-25 12:38 | -9.05280 | 115.72682 | 10004 ft | 302 kts | 219° |
| 2026-04-25 12:38 | -9.06862 | 115.71262 | 10007 ft | 302 kts | 219° |
| 2026-04-25 12:38 | -9.08433 | 115.69847 | 10007 ft | 303 kts | 219° |
| 2026-04-25 12:38 | -9.10000 | 115.68433 | 10007 ft | 303 kts | 219° |
| 2026-04-25 12:39 | -9.11597 | 115.66995 | 10002 ft | 303 kts | 219° |
| 2026-04-25 12:39 | -9.13176 | 115.65577 | 10005 ft | 302 kts | 219° |
| 2026-04-25 12:39 | -9.14745 | 115.64171 | 10006 ft | 302 kts | 219° |
| 2026-04-25 12:39 | -9.16317 | 115.62759 | 10005 ft | 302 kts | 219° |
| 2026-04-25 12:40 | -9.17890 | 115.61344 | 10003 ft | 302 kts | 219° |
| 2026-04-25 12:40 | -9.19452 | 115.59939 | 10005 ft | 302 kts | 219° |
| 2026-04-25 12:40 | -9.21050 | 115.58498 | 10005 ft | 302 kts | 219° |
| 2026-04-25 12:40 | -9.22602 | 115.57098 | 10007 ft | 302 kts | 220° |
| 2026-04-25 12:41 | -9.24191 | 115.55666 | 10005 ft | 301 kts | 219° |
| 2026-04-25 12:41 | -9.25758 | 115.54255 | 10005 ft | 302 kts | 220° |
| 2026-04-25 12:41 | -9.27328 | 115.52843 | 10004 ft | 302 kts | 219° |
| 2026-04-25 12:41 | -9.28896 | 115.51432 | 10005 ft | 302 kts | 219° |
| 2026-04-25 12:42 | -9.30471 | 115.50014 | 10006 ft | 302 kts | 219° |
| 2026-04-25 12:42 | -9.31508 | 115.49079 | 10004 ft | 302 kts | 219° |
| 2026-04-25 12:42 | -9.33605 | 115.47186 | 10004 ft | 302 kts | 220° |
| 2026-04-25 12:42 | -9.35167 | 115.45776 | 10006 ft | 301 kts | 220° |
| 2026-04-25 12:43 | -9.36734 | 115.44363 | 10009 ft | 302 kts | 219° |
| 2026-04-25 12:43 | -9.38239 | 115.42882 | 10006 ft | 303 kts | 229° |
| 2026-04-25 12:43 | -9.39848 | 115.38964 | 10010 ft | 307 kts | 264° |
| 2026-04-25 12:44 | -9.39850 | 115.36792 | 10008 ft | 308 kts | 271° |
| 2026-04-25 12:44 | -9.39796 | 115.34630 | 10008 ft | 308 kts | 270° |
| 2026-04-25 12:44 | -9.39715 | 115.30284 | 10007 ft | 309 kts | 270° |
| 2026-04-25 12:45 | -9.39678 | 115.28156 | 10006 ft | 309 kts | 270° |
| 2026-04-25 12:45 | -9.39637 | 115.25991 | 10010 ft | 308 kts | 270° |
| 2026-04-25 12:45 | -9.39548 | 115.21692 | 10008 ft | 309 kts | 270° |
| 2026-04-25 12:46 | -9.39502 | 115.19507 | 10007 ft | 308 kts | 270° |
| 2026-04-25 12:46 | -9.39457 | 115.17318 | 10008 ft | 309 kts | 270° |
| 2026-04-25 12:46 | -9.39414 | 115.15140 | 10007 ft | 309 kts | 270° |
| 2026-04-25 12:46 | -9.39371 | 115.12969 | 10008 ft | 308 kts | 270° |
| 2026-04-25 12:47 | -9.39328 | 115.10797 | 10010 ft | 309 kts | 270° |
| 2026-04-25 12:47 | -9.39284 | 115.08632 | 10007 ft | 309 kts | 270° |
| 2026-04-25 12:47 | -9.39240 | 115.06448 | 10009 ft | 309 kts | 270° |
| 2026-04-25 12:47 | -9.39195 | 115.04274 | 10008 ft | 309 kts | 270° |
| 2026-04-25 12:48 | -9.39152 | 115.02107 | 9986 ft | 309 kts | 270° |
| 2026-04-25 12:48 | -9.39104 | 114.99938 | 9785 ft | 307 kts | 272° |
| 2026-04-25 12:48 | -9.38646 | 114.97852 | 9445 ft | 304 kts | 294° |
| 2026-04-25 12:48 | -9.37469 | 114.96095 | 9263 ft | 304 kts | 316° |
| 2026-04-25 12:49 | -9.35759 | 114.94876 | 9132 ft | 301 kts | 338° |
| 2026-04-25 12:49 | -9.33755 | 114.94354 | 9018 ft | 297 kts | 358° |
| 2026-04-25 12:49 | -9.31695 | 114.94254 | 8885 ft | 296 kts | 359° |
| 2026-04-25 12:49 | -9.29642 | 114.94159 | 8766 ft | 295 kts | 359° |
| 2026-04-25 12:50 | -9.27590 | 114.94057 | 8622 ft | 295 kts | 359° |
| 2026-04-25 12:50 | -9.25547 | 114.93950 | 8258 ft | 294 kts | 359° |
| 2026-04-25 12:50 | -9.23509 | 114.93842 | 7850 ft | 290 kts | 359° |
| 2026-04-25 12:50 | -9.21507 | 114.93738 | 7445 ft | 287 kts | 359° |
| 2026-04-25 12:51 | -9.19516 | 114.93637 | 7033 ft | 286 kts | 359° |
| 2026-04-25 12:51 | -9.17534 | 114.93537 | 6630 ft | 286 kts | 359° |
| 2026-04-25 12:51 | -9.15504 | 114.93431 | 6202 ft | 288 kts | 359° |
| 2026-04-25 12:51 | -9.13522 | 114.93325 | 5843 ft | 285 kts | 359° |
| 2026-04-25 12:52 | -9.11501 | 114.93218 | 5460 ft | 284 kts | 359° |
| 2026-04-25 12:52 | -9.09543 | 114.93118 | 5157 ft | 279 kts | 359° |
| 2026-04-25 12:52 | -9.07628 | 114.93022 | 4639 ft | 277 kts | 359° |
| 2026-04-25 12:52 | -9.05681 | 114.92923 | 4172 ft | 278 kts | 359° |
| 2026-04-25 12:53 | -9.03765 | 114.92822 | 3857 ft | 275 kts | 359° |
| 2026-04-25 12:53 | -9.01870 | 114.92709 | 3716 ft | 271 kts | 359° |
| 2026-04-25 12:53 | -9.00606 | 114.92633 | 3644 ft | 271 kts | 359° |
| 2026-04-25 12:53 | -8.98104 | 114.92476 | 3484 ft | 269 kts | 359° |
| 2026-04-25 12:54 | -8.96840 | 114.92396 | 3399 ft | 270 kts | 359° |
| 2026-04-25 12:54 | -8.94972 | 114.92280 | 3281 ft | 269 kts | 359° |
| 2026-04-25 12:54 | -8.93098 | 114.92164 | 3160 ft | 269 kts | 359° |
| 2026-04-25 12:54 | -8.91308 | 114.92053 | 3051 ft | 268 kts | 359° |
| 2026-04-25 12:55 | -8.89409 | 114.91936 | 2999 ft | 262 kts | 359° |
| 2026-04-25 12:55 | -8.88231 | 114.91862 | 3002 ft | 250 kts | 359° |
| 2026-04-25 12:55 | -8.86022 | 114.91722 | 3008 ft | 226 kts | 359° |
| 2026-04-25 12:55 | -8.84508 | 114.91627 | 3008 ft | 209 kts | 359° |
| 2026-04-25 12:56 | -8.83084 | 114.91542 | 3008 ft | 205 kts | 359° |
| 2026-04-25 12:56 | -8.81646 | 114.91456 | 3011 ft | 206 kts | 359° |
| 2026-04-25 12:56 | -8.80216 | 114.91370 | 3012 ft | 206 kts | 360° |
| 2026-04-25 12:56 | -8.78830 | 114.91350 | 3018 ft | 192 kts | 10° |
| 2026-04-25 12:57 | -8.77616 | 114.91711 | 3042 ft | 178 kts | 29° |
| 2026-04-25 12:57 | -8.76605 | 114.92437 | 3015 ft | 176 kts | 47° |
| 2026-04-25 12:57 | -8.75903 | 114.93410 | 3006 ft | 174 kts | 65° |
| 2026-04-25 12:57 | -8.75525 | 114.94563 | 2910 ft | 173 kts | 82° |
| 2026-04-25 12:58 | -8.75488 | 114.95780 | 2785 ft | 173 kts | 91° |
| 2026-04-25 12:58 | -8.75503 | 114.97003 | 2685 ft | 172 kts | 91° |
| 2026-04-25 12:58 | -8.75513 | 114.98206 | 2594 ft | 171 kts | 90° |
| 2026-04-25 12:58 | -8.75520 | 114.99410 | 2505 ft | 173 kts | 91° |
| 2026-04-25 12:59 | -8.75494 | 115.00619 | 2374 ft | 167 kts | 88° |
| 2026-04-25 12:59 | -8.75448 | 115.01750 | 2243 ft | 159 kts | 88° |
| 2026-04-25 12:59 | -8.75399 | 115.02879 | 2114 ft | 161 kts | 88° |
| 2026-04-25 12:59 | -8.75352 | 115.04000 | 1989 ft | 159 kts | 88° |
| 2026-04-25 13:00 | -8.75304 | 115.05128 | 1855 ft | 154 kts | 88° |
| 2026-04-25 13:00 | -8.75290 | 115.05472 | 1818 ft | 147 kts | 88° |
| 2026-04-25 13:00 | -8.75223 | 115.07079 | 1610 ft | 134 kts | 88° |
| 2026-04-25 13:00 | -8.75185 | 115.08019 | 1427 ft | 132 kts | 89° |
| 2026-04-25 13:01 | -8.75150 | 115.08929 | 1259 ft | 137 kts | 90° |
| 2026-04-25 13:01 | -8.75119 | 115.09897 | 1149 ft | 135 kts | 89° |
| 2026-04-25 13:01 | -8.75072 | 115.10831 | 977 ft | 136 kts | 88° |
| 2026-04-25 13:01 | -8.75022 | 115.11795 | 805 ft | 136 kts | 90° |
| 2026-04-25 13:02 | -8.75007 | 115.12752 | 643 ft | 135 kts | 90° |
| 2026-04-25 13:02 | -8.74962 | 115.13614 | 463 ft | 135 kts | 89° |
| 2026-04-25 13:02 | -8.74930 | 115.14562 | 236 ft | 135 kts | 90° |
| 2026-04-25 13:02 | -8.74893 | 115.15508 | 48 ft | 134 kts | 88° |
| 2026-04-25 13:03 | -8.74865 | 115.16273 | 28 ft | 90 kts | 89° |
| 2026-04-25 13:03 | -8.74854 | 115.16577 | 29 ft | 24 kts | 87° |
| 2026-04-25 13:03 | -8.74851 | 115.16622 | 28 ft | 0 kts | 85° |
| 2026-04-25 13:03 | -8.74850 | 115.16632 | 28 ft | 4 kts | 85° |
| 2026-04-25 13:04 | -8.74846 | 115.16673 | 28 ft | 8 kts | 83° |
| 2026-04-25 13:04 | -8.74818 | 115.16741 | 27 ft | 12 kts | 62° |
| 2026-04-25 13:04 | -8.74774 | 115.16826 | 29 ft | 13 kts | 62° |
| 2026-04-25 13:04 | -8.74714 | 115.16861 | 31 ft | 9 kts | 354° |
| 2026-04-25 13:05 | -8.74676 | 115.16815 | 32 ft | 10 kts | 274° |
| 2026-04-25 13:05 | -8.74678 | 115.16734 | 32 ft | 13 kts | 268° |
| 2026-04-25 13:05 | -8.74682 | 115.16631 | 32 ft | 16 kts | 267° |
| 2026-04-25 13:05 | -8.74688 | 115.16506 | 33 ft | 19 kts | 268° |
| 2026-04-25 13:06 | -8.74694 | 115.16360 | 33 ft | 22 kts | 265° |
| 2026-04-25 13:06 | -8.74699 | 115.16222 | 33 ft | 16 kts | 267° |
| 2026-04-25 13:06 | -8.74704 | 115.16109 | 33 ft | 16 kts | 267° |
| 2026-04-25 13:06 | -8.74695 | 115.16017 | 31 ft | 12 kts | 305° |
| 2026-04-25 13:07 | -8.74636 | 115.16000 | 33 ft | 7 kts | 359° |
| 2026-04-25 13:07 | -8.74572 | 115.15998 | 32 ft | 11 kts | 358° |
| 2026-04-25 13:07 | -8.74536 | 115.15979 | 32 ft | 4 kts | 283° |
| 2026-04-25 13:07 | -8.74540 | 115.15943 | 34 ft | 5 kts | 266° |
| 2026-04-25 13:08 | -8.74541 | 115.15929 | 34 ft | 3 kts | 267° |
| 2026-04-25 13:08 | -8.74542 | 115.15899 | 34 ft | 4 kts | 268° |